sensor_id;sensor_type;location;lat;lon;timestamp;P1;durP1;ratioP1;P2;durP2;ratioP2
12373;SDS011;6251;51.762;8.660;2024-03-08T00:05:31;34.83;;;24.03;;
12373;SDS011;6251;51.762;8.660;2024-03-08T02:08:06;41.67;;;26.47;;
12373;SDS011;6251;51.762;8.660;2024-03-08T03:49:45;46.67;;;28.00;;
12373;SDS011;6251;51.762;8.660;2024-03-08T03:59:46;43.60;;;27.90;;
12373;SDS011;6251;51.762;8.660;2024-03-08T05:00:39;43.17;;;25.93;;
12373;SDS011;6251;51.762;8.660;2024-03-08T05:10:40;47.10;;;27.03;;
12373;SDS011;6251;51.762;8.660;2024-03-08T05:20:41;43.63;;;26.77;;
12373;SDS011;6251;51.762;8.660;2024-03-08T05:30:42;46.77;;;27.13;;
12373;SDS011;6251;51.762;8.660;2024-03-08T05:40:42;47.90;;;27.67;;
12373;SDS011;6251;51.762;8.660;2024-03-08T05:50:43;43.57;;;26.60;;
12373;SDS011;6251;51.762;8.660;2024-03-08T06:00:44;49.47;;;28.23;;
12373;SDS011;6251;51.762;8.660;2024-03-08T06:10:46;48.70;;;28.53;;
12373;SDS011;6251;51.762;8.660;2024-03-08T06:20:49;49.63;;;27.57;;
12373;SDS011;6251;51.762;8.660;2024-03-08T06:30:50;49.57;;;28.73;;
12373;SDS011;6251;51.762;8.660;2024-03-08T06:40:51;57.30;;;32.67;;
12373;SDS011;6251;51.762;8.660;2024-03-08T06:50:53;56.43;;;31.20;;
12373;SDS011;6251;51.762;8.660;2024-03-08T07:00:53;52.50;;;29.80;;
12373;SDS011;6251;51.762;8.660;2024-03-08T07:10:58;54.30;;;31.17;;
12373;SDS011;6251;51.762;8.660;2024-03-08T07:20:58;52.93;;;31.10;;
12373;SDS011;6251;51.762;8.660;2024-03-08T07:30:59;56.00;;;32.67;;
12373;SDS011;6251;51.762;8.660;2024-03-08T07:41:17;52.07;;;32.07;;
12373;SDS011;6251;51.762;8.660;2024-03-08T07:51:17;50.47;;;30.17;;
12373;SDS011;6251;51.762;8.660;2024-03-08T08:01:18;49.10;;;29.60;;
12373;SDS011;6251;51.762;8.660;2024-03-08T08:11:19;48.90;;;29.97;;
12373;SDS011;6251;51.762;8.660;2024-03-08T08:21:20;46.70;;;28.52;;
12373;SDS011;6251;51.762;8.660;2024-03-08T08:31:22;46.37;;;28.67;;
12373;SDS011;6251;51.762;8.660;2024-03-08T08:41:22;47.62;;;28.70;;
12373;SDS011;6251;51.762;8.660;2024-03-08T08:51:23;44.92;;;29.40;;
12373;SDS011;6251;51.762;8.660;2024-03-08T09:01:23;44.00;;;28.33;;
12373;SDS011;6251;51.762;8.660;2024-03-08T09:11:24;38.33;;;25.12;;
12373;SDS011;6251;51.762;8.660;2024-03-08T09:21:27;37.85;;;25.25;;
12373;SDS011;6251;51.762;8.660;2024-03-08T09:31:28;36.75;;;24.25;;
12373;SDS011;6251;51.762;8.660;2024-03-08T09:41:29;34.13;;;22.80;;
12373;SDS011;6251;51.762;8.660;2024-03-08T09:51:30;36.67;;;23.50;;
12373;SDS011;6251;51.762;8.660;2024-03-08T10:01:35;37.88;;;24.23;;
12373;SDS011;6251;51.762;8.660;2024-03-08T10:11:36;34.22;;;21.95;;
12373;SDS011;6251;51.762;8.660;2024-03-08T10:21:46;34.25;;;23.30;;
12373;SDS011;6251;51.762;8.660;2024-03-08T10:31:49;30.95;;;21.27;;
12373;SDS011;6251;51.762;8.660;2024-03-08T10:42:01;30.42;;;21.35;;
12373;SDS011;6251;51.762;8.660;2024-03-08T10:52:03;28.12;;;20.30;;
12373;SDS011;6251;51.762;8.660;2024-03-08T11:02:14;27.55;;;20.05;;
12373;SDS011;6251;51.762;8.660;2024-03-08T11:12:26;26.12;;;19.02;;
12373;SDS011;6251;51.762;8.660;2024-03-08T11:22:32;26.95;;;18.67;;
12373;SDS011;6251;51.762;8.660;2024-03-08T11:32:33;26.62;;;19.58;;
12373;SDS011;6251;51.762;8.660;2024-03-08T11:42:36;29.63;;;19.90;;
12373;SDS011;6251;51.762;8.660;2024-03-08T11:52:37;26.85;;;19.75;;
12373;SDS011;6251;51.762;8.660;2024-03-08T12:02:38;28.95;;;20.37;;
12373;SDS011;6251;51.762;8.660;2024-03-08T12:12:49;25.98;;;19.30;;
12373;SDS011;6251;51.762;8.660;2024-03-08T12:22:52;25.88;;;19.42;;
12373;SDS011;6251;51.762;8.660;2024-03-08T12:32:55;30.95;;;20.80;;
12373;SDS011;6251;51.762;8.660;2024-03-08T12:43:02;27.52;;;20.60;;
12373;SDS011;6251;51.762;8.660;2024-03-08T12:53:03;27.83;;;20.95;;
12373;SDS011;6251;51.762;8.660;2024-03-08T13:03:04;26.55;;;19.98;;
12373;SDS011;6251;51.762;8.660;2024-03-08T13:13:06;27.70;;;19.95;;
12373;SDS011;6251;51.762;8.660;2024-03-08T13:23:09;26.62;;;19.37;;
12373;SDS011;6251;51.762;8.660;2024-03-08T13:33:10;26.35;;;19.45;;
12373;SDS011;6251;51.762;8.660;2024-03-08T13:43:11;25.92;;;18.98;;
12373;SDS011;6251;51.762;8.660;2024-03-08T13:53:13;25.98;;;19.75;;
12373;SDS011;6251;51.762;8.660;2024-03-08T14:03:15;25.75;;;19.00;;
12373;SDS011;6251;51.762;8.660;2024-03-08T14:13:15;25.23;;;18.33;;
12373;SDS011;6251;51.762;8.660;2024-03-08T14:23:18;24.58;;;18.08;;
12373;SDS011;6251;51.762;8.660;2024-03-08T14:33:20;23.58;;;17.87;;
12373;SDS011;6251;51.762;8.660;2024-03-08T14:43:20;29.30;;;18.92;;
12373;SDS011;6251;51.762;8.660;2024-03-08T14:53:22;25.65;;;18.62;;
12373;SDS011;6251;51.762;8.660;2024-03-08T15:03:24;22.73;;;17.37;;
12373;SDS011;6251;51.762;8.660;2024-03-08T15:13:26;25.58;;;19.08;;
12373;SDS011;6251;51.762;8.660;2024-03-08T15:23:40;26.52;;;18.75;;
12373;SDS011;6251;51.762;8.660;2024-03-08T15:33:43;23.85;;;18.25;;
12373;SDS011;6251;51.762;8.660;2024-03-08T15:43:52;26.20;;;18.27;;
12373;SDS011;6251;51.762;8.660;2024-03-08T15:53:52;28.45;;;19.70;;
12373;SDS011;6251;51.762;8.660;2024-03-08T16:03:53;26.17;;;19.33;;
12373;SDS011;6251;51.762;8.660;2024-03-08T16:13:54;28.70;;;20.85;;
12373;SDS011;6251;51.762;8.660;2024-03-08T16:23:56;34.53;;;20.73;;
12373;SDS011;6251;51.762;8.660;2024-03-08T16:33:57;26.80;;;19.50;;
12373;SDS011;6251;51.762;8.660;2024-03-08T16:43:57;27.77;;;20.62;;
12373;SDS011;6251;51.762;8.660;2024-03-08T16:54:00;27.08;;;19.60;;
12373;SDS011;6251;51.762;8.660;2024-03-08T17:04:02;29.12;;;19.62;;
12373;SDS011;6251;51.762;8.660;2024-03-08T17:14:04;30.00;;;21.17;;
12373;SDS011;6251;51.762;8.660;2024-03-08T17:24:04;34.47;;;23.25;;
12373;SDS011;6251;51.762;8.660;2024-03-08T17:34:11;34.28;;;24.37;;
12373;SDS011;6251;51.762;8.660;2024-03-08T17:44:18;37.58;;;25.58;;
12373;SDS011;6251;51.762;8.660;2024-03-08T17:54:19;35.72;;;24.73;;
12373;SDS011;6251;51.762;8.660;2024-03-08T18:04:20;36.28;;;24.45;;
12373;SDS011;6251;51.762;8.660;2024-03-08T18:14:22;40.70;;;25.88;;
12373;SDS011;6251;51.762;8.660;2024-03-08T18:24:23;38.25;;;24.52;;
12373;SDS011;6251;51.762;8.660;2024-03-08T18:34:25;36.95;;;24.25;;
12373;SDS011;6251;51.762;8.660;2024-03-08T18:44:26;34.10;;;23.58;;
12373;SDS011;6251;51.762;8.660;2024-03-08T18:54:27;36.47;;;23.73;;
12373;SDS011;6251;51.762;8.660;2024-03-08T19:04:29;34.15;;;23.00;;
12373;SDS011;6251;51.762;8.660;2024-03-08T19:14:30;39.50;;;25.08;;
12373;SDS011;6251;51.762;8.660;2024-03-08T19:24:33;36.85;;;24.73;;
12373;SDS011;6251;51.762;8.660;2024-03-08T19:34:37;37.40;;;23.20;;
12373;SDS011;6251;51.762;8.660;2024-03-08T19:44:39;38.75;;;24.92;;
12373;SDS011;6251;51.762;8.660;2024-03-08T19:54:40;36.03;;;24.17;;
12373;SDS011;6251;51.762;8.660;2024-03-08T20:04:42;38.42;;;24.08;;
12373;SDS011;6251;51.762;8.660;2024-03-08T20:14:43;37.70;;;23.90;;
12373;SDS011;6251;51.762;8.660;2024-03-08T20:24:43;38.17;;;25.05;;
12373;SDS011;6251;51.762;8.660;2024-03-08T20:34:44;37.83;;;23.98;;
12373;SDS011;6251;51.762;8.660;2024-03-08T20:44:45;40.40;;;24.65;;
12373;SDS011;6251;51.762;8.660;2024-03-08T20:54:46;41.17;;;25.27;;
12373;SDS011;6251;51.762;8.660;2024-03-08T21:04:47;40.30;;;24.98;;
12373;SDS011;6251;51.762;8.660;2024-03-08T21:14:50;39.22;;;25.45;;
12373;SDS011;6251;51.762;8.660;2024-03-08T21:24:52;40.30;;;25.35;;
12373;SDS011;6251;51.762;8.660;2024-03-08T21:34:53;40.80;;;25.65;;
12373;SDS011;6251;51.762;8.660;2024-03-08T21:44:54;39.58;;;25.48;;
12373;SDS011;6251;51.762;8.660;2024-03-08T21:54:56;42.25;;;26.17;;
